Terminal Aerodrome Forecast
Issued by NWS Wilmington, OH

Current Version | Previous Version | Text Only | Print | Product List | Glossary On
Versions: 1 2 3 4 5 6 7 8 9 10 11 12 13 14 15 16 17 18 19 20 21 22 23 24 25 26 27 28
000
FTUS41 KILN 271800 AAA
TAFCVG
TAF AMD
KCVG 271825Z 2718/2824 21009KT P6SM BKN014 OVC025
     FM272000 19009KT 6SM BR VCSH BKN008 OVC015
      TEMPO 2723/2801 3SM -SHRA BKN005 OVC012
     FM280100 25006KT 5SM BR VCSH BKN007 OVC018
     FM280700 34006KT 4SM -SHRA BR SCT003 BKN008 OVC015
     FM281400 01007KT P6SM VCSH OVC015
     FM282200 31007KT P6SM SCT025 BKN080=

USA.gov is the U.S. government's official web portal to all federal, state and local government web resources and services.